sensor_id;sensor_type;location;lat;lon;timestamp;P1;durP1;ratioP1;P2;durP2;ratioP2
7821;SDS011;3956;50.558;9.678;2023-02-15T00:00:15;21.10;;;12.13;;
7821;SDS011;3956;50.558;9.678;2023-02-15T00:02:44;21.67;;;12.73;;
7821;SDS011;3956;50.558;9.678;2023-02-15T00:05:14;23.10;;;13.20;;
7821;SDS011;3956;50.558;9.678;2023-02-15T00:07:42;23.13;;;12.83;;
7821;SDS011;3956;50.558;9.678;2023-02-15T00:10:25;27.90;;;12.93;;
7821;SDS011;3956;50.558;9.678;2023-02-15T00:12:53;25.73;;;13.53;;
7821;SDS011;3956;50.558;9.678;2023-02-15T00:15:22;20.83;;;12.03;;
7821;SDS011;3956;50.558;9.678;2023-02-15T00:17:52;22.80;;;12.63;;
7821;SDS011;3956;50.558;9.678;2023-02-15T00:20:21;22.60;;;12.67;;
7821;SDS011;3956;50.558;9.678;2023-02-15T00:22:50;19.83;;;11.90;;
7821;SDS011;3956;50.558;9.678;2023-02-15T00:25:21;18.77;;;11.17;;
7821;SDS011;3956;50.558;9.678;2023-02-15T00:27:49;17.93;;;10.50;;
7821;SDS011;3956;50.558;9.678;2023-02-15T00:30:18;21.57;;;11.33;;
7821;SDS011;3956;50.558;9.678;2023-02-15T00:32:46;20.93;;;10.70;;
7821;SDS011;3956;50.558;9.678;2023-02-15T00:35:18;18.00;;;11.30;;
7821;SDS011;3956;50.558;9.678;2023-02-15T00:37:48;19.20;;;11.13;;
7821;SDS011;3956;50.558;9.678;2023-02-15T00:40:16;17.17;;;10.00;;
7821;SDS011;3956;50.558;9.678;2023-02-15T00:42:44;18.90;;;10.13;;
7821;SDS011;3956;50.558;9.678;2023-02-15T00:45:12;18.10;;;10.60;;
7821;SDS011;3956;50.558;9.678;2023-02-15T00:47:42;20.43;;;11.73;;
7821;SDS011;3956;50.558;9.678;2023-02-15T00:50:10;18.57;;;10.70;;
7821;SDS011;3956;50.558;9.678;2023-02-15T00:52:39;20.07;;;10.47;;
7821;SDS011;3956;50.558;9.678;2023-02-15T00:55:08;19.37;;;10.70;;
7821;SDS011;3956;50.558;9.678;2023-02-15T00:57:36;17.57;;;10.27;;
7821;SDS011;3956;50.558;9.678;2023-02-15T01:00:05;19.47;;;10.83;;
7821;SDS011;3956;50.558;9.678;2023-02-15T01:02:34;20.00;;;11.00;;
7821;SDS011;3956;50.558;9.678;2023-02-15T01:05:02;17.47;;;11.20;;
7821;SDS011;3956;50.558;9.678;2023-02-15T01:07:32;17.73;;;10.67;;
7821;SDS011;3956;50.558;9.678;2023-02-15T01:10:00;18.17;;;10.27;;
7821;SDS011;3956;50.558;9.678;2023-02-15T01:12:29;16.13;;;9.80;;
7821;SDS011;3956;50.558;9.678;2023-02-15T01:14:57;18.27;;;9.77;;
7821;SDS011;3956;50.558;9.678;2023-02-15T01:17:27;20.23;;;10.20;;
7821;SDS011;3956;50.558;9.678;2023-02-15T01:19:56;20.07;;;10.83;;
7821;SDS011;3956;50.558;9.678;2023-02-15T01:22:29;20.77;;;11.33;;
7821;SDS011;3956;50.558;9.678;2023-02-15T01:25:01;20.20;;;11.50;;
7821;SDS011;3956;50.558;9.678;2023-02-15T01:27:33;20.13;;;10.67;;
7821;SDS011;3956;50.558;9.678;2023-02-15T01:30:03;19.20;;;11.47;;
7821;SDS011;3956;50.558;9.678;2023-02-15T01:32:33;21.87;;;12.20;;
7821;SDS011;3956;50.558;9.678;2023-02-15T01:35:01;19.57;;;11.47;;
7821;SDS011;3956;50.558;9.678;2023-02-15T01:37:39;21.40;;;11.83;;
7821;SDS011;3956;50.558;9.678;2023-02-15T01:40:11;18.70;;;10.17;;
7821;SDS011;3956;50.558;9.678;2023-02-15T01:42:53;19.33;;;10.30;;
7821;SDS011;3956;50.558;9.678;2023-02-15T01:45:24;18.20;;;10.67;;
7821;SDS011;3956;50.558;9.678;2023-02-15T01:47:56;18.03;;;10.37;;
7821;SDS011;3956;50.558;9.678;2023-02-15T01:50:30;16.37;;;9.93;;
7821;SDS011;3956;50.558;9.678;2023-02-15T01:53:08;17.80;;;10.67;;
7821;SDS011;3956;50.558;9.678;2023-02-15T01:55:42;18.83;;;10.30;;
7821;SDS011;3956;50.558;9.678;2023-02-15T01:58:23;15.07;;;9.93;;
7821;SDS011;3956;50.558;9.678;2023-02-15T02:00:56;17.57;;;9.70;;
7821;SDS011;3956;50.558;9.678;2023-02-15T02:03:32;18.57;;;10.17;;
7821;SDS011;3956;50.558;9.678;2023-02-15T02:06:06;17.23;;;10.40;;
7821;SDS011;3956;50.558;9.678;2023-02-15T02:08:35;16.00;;;8.97;;
7821;SDS011;3956;50.558;9.678;2023-02-15T02:11:09;17.03;;;10.33;;
7821;SDS011;3956;50.558;9.678;2023-02-15T02:13:39;20.47;;;10.77;;
7821;SDS011;3956;50.558;9.678;2023-02-15T02:16:10;18.77;;;10.23;;
7821;SDS011;3956;50.558;9.678;2023-02-15T02:18:45;18.03;;;10.30;;
7821;SDS011;3956;50.558;9.678;2023-02-15T02:24:52;18.53;;;9.97;;
7821;SDS011;3956;50.558;9.678;2023-02-15T02:27:47;17.50;;;9.60;;
7821;SDS011;3956;50.558;9.678;2023-02-15T02:33:33;17.33;;;10.03;;
7821;SDS011;3956;50.558;9.678;2023-02-15T02:36:20;20.43;;;10.50;;
7821;SDS011;3956;50.558;9.678;2023-02-15T02:39:02;16.13;;;9.53;;
7821;SDS011;3956;50.558;9.678;2023-02-15T02:41:58;18.60;;;10.33;;
7821;SDS011;3956;50.558;9.678;2023-02-15T02:44:34;18.77;;;9.77;;
7821;SDS011;3956;50.558;9.678;2023-02-15T02:47:09;16.77;;;9.70;;
7821;SDS011;3956;50.558;9.678;2023-02-15T02:49:45;16.27;;;9.70;;
7821;SDS011;3956;50.558;9.678;2023-02-15T02:55:05;18.87;;;10.63;;
7821;SDS011;3956;50.558;9.678;2023-02-15T02:57:39;19.03;;;10.37;;
7821;SDS011;3956;50.558;9.678;2023-02-15T03:00:16;18.60;;;9.90;;
7821;SDS011;3956;50.558;9.678;2023-02-15T03:02:50;16.97;;;10.10;;
7821;SDS011;3956;50.558;9.678;2023-02-15T03:05:44;18.47;;;10.67;;
7821;SDS011;3956;50.558;9.678;2023-02-15T03:08:18;23.20;;;10.60;;
7821;SDS011;3956;50.558;9.678;2023-02-15T03:10:55;19.13;;;11.17;;
7821;SDS011;3956;50.558;9.678;2023-02-15T03:13:29;18.87;;;10.50;;
7821;SDS011;3956;50.558;9.678;2023-02-15T03:15:59;17.17;;;10.37;;
7821;SDS011;3956;50.558;9.678;2023-02-15T03:18:55;18.20;;;10.33;;
7821;SDS011;3956;50.558;9.678;2023-02-15T03:21:34;19.60;;;11.07;;
7821;SDS011;3956;50.558;9.678;2023-02-15T03:24:09;20.60;;;10.97;;
7821;SDS011;3956;50.558;9.678;2023-02-15T03:26:42;16.20;;;9.87;;
7821;SDS011;3956;50.558;9.678;2023-02-15T03:29:14;21.23;;;11.43;;
7821;SDS011;3956;50.558;9.678;2023-02-15T03:31:50;17.93;;;10.00;;
7821;SDS011;3956;50.558;9.678;2023-02-15T03:34:23;19.13;;;10.67;;
7821;SDS011;3956;50.558;9.678;2023-02-15T03:36:56;20.53;;;11.20;;
7821;SDS011;3956;50.558;9.678;2023-02-15T03:39:47;19.17;;;11.00;;
7821;SDS011;3956;50.558;9.678;2023-02-15T03:42:24;21.90;;;10.83;;
7821;SDS011;3956;50.558;9.678;2023-02-15T03:45:02;18.13;;;11.17;;
7821;SDS011;3956;50.558;9.678;2023-02-15T03:47:42;17.83;;;10.40;;
7821;SDS011;3956;50.558;9.678;2023-02-15T03:50:31;19.83;;;10.30;;
7821;SDS011;3956;50.558;9.678;2023-02-15T03:53:22;22.10;;;10.70;;
7821;SDS011;3956;50.558;9.678;2023-02-15T03:55:57;18.00;;;10.63;;
7821;SDS011;3956;50.558;9.678;2023-02-15T03:58:27;17.97;;;9.13;;
7821;SDS011;3956;50.558;9.678;2023-02-15T04:01:13;18.73;;;9.87;;
7821;SDS011;3956;50.558;9.678;2023-02-15T04:04:15;19.03;;;10.50;;
7821;SDS011;3956;50.558;9.678;2023-02-15T04:06:46;18.97;;;10.83;;
7821;SDS011;3956;50.558;9.678;2023-02-15T04:09:17;19.13;;;10.53;;
7821;SDS011;3956;50.558;9.678;2023-02-15T04:12:07;19.60;;;11.33;;
7821;SDS011;3956;50.558;9.678;2023-02-15T04:14:35;20.30;;;11.23;;
7821;SDS011;3956;50.558;9.678;2023-02-15T04:17:21;20.90;;;11.13;;
7821;SDS011;3956;50.558;9.678;2023-02-15T04:19:53;19.43;;;10.57;;
7821;SDS011;3956;50.558;9.678;2023-02-15T04:22:39;23.87;;;13.70;;
7821;SDS011;3956;50.558;9.678;2023-02-15T04:25:25;19.90;;;11.20;;
7821;SDS011;3956;50.558;9.678;2023-02-15T04:27:56;22.10;;;11.90;;
7821;SDS011;3956;50.558;9.678;2023-02-15T04:30:25;19.67;;;10.73;;
7821;SDS011;3956;50.558;9.678;2023-02-15T04:32:55;19.80;;;11.63;;
7821;SDS011;3956;50.558;9.678;2023-02-15T04:35:25;21.77;;;11.67;;
7821;SDS011;3956;50.558;9.678;2023-02-15T04:37:56;19.47;;;11.20;;
7821;SDS011;3956;50.558;9.678;2023-02-15T04:40:27;21.00;;;10.10;;
7821;SDS011;3956;50.558;9.678;2023-02-15T04:43:03;17.97;;;10.70;;
7821;SDS011;3956;50.558;9.678;2023-02-15T04:45:39;19.17;;;10.83;;
7821;SDS011;3956;50.558;9.678;2023-02-15T04:48:21;21.63;;;11.60;;
7821;SDS011;3956;50.558;9.678;2023-02-15T04:50:52;22.80;;;11.60;;
7821;SDS011;3956;50.558;9.678;2023-02-15T04:53:20;22.03;;;12.43;;
7821;SDS011;3956;50.558;9.678;2023-02-15T04:55:51;21.13;;;11.37;;
7821;SDS011;3956;50.558;9.678;2023-02-15T04:58:23;22.53;;;10.57;;
7821;SDS011;3956;50.558;9.678;2023-02-15T05:00:54;18.20;;;10.33;;
7821;SDS011;3956;50.558;9.678;2023-02-15T05:03:26;17.67;;;10.17;;
7821;SDS011;3956;50.558;9.678;2023-02-15T05:09:33;18.30;;;10.57;;
7821;SDS011;3956;50.558;9.678;2023-02-15T05:12:01;19.97;;;11.60;;
7821;SDS011;3956;50.558;9.678;2023-02-15T05:14:32;23.07;;;11.87;;
7821;SDS011;3956;50.558;9.678;2023-02-15T05:17:00;18.53;;;10.20;;
7821;SDS011;3956;50.558;9.678;2023-02-15T05:19:29;19.90;;;10.63;;
7821;SDS011;3956;50.558;9.678;2023-02-15T05:21:59;18.33;;;10.10;;
7821;SDS011;3956;50.558;9.678;2023-02-15T05:24:28;22.17;;;11.13;;
7821;SDS011;3956;50.558;9.678;2023-02-15T05:27:19;15.80;;;9.83;;
7821;SDS011;3956;50.558;9.678;2023-02-15T05:30:11;18.73;;;9.60;;
7821;SDS011;3956;50.558;9.678;2023-02-15T05:32:42;17.07;;;10.10;;
7821;SDS011;3956;50.558;9.678;2023-02-15T05:35:16;20.90;;;10.90;;
7821;SDS011;3956;50.558;9.678;2023-02-15T05:37:47;20.70;;;9.50;;
7821;SDS011;3956;50.558;9.678;2023-02-15T05:40:19;15.33;;;9.13;;
7821;SDS011;3956;50.558;9.678;2023-02-15T05:42:50;16.87;;;9.47;;
7821;SDS011;3956;50.558;9.678;2023-02-15T05:49:14;18.53;;;9.40;;
7821;SDS011;3956;50.558;9.678;2023-02-15T05:51:42;17.17;;;9.87;;
7821;SDS011;3956;50.558;9.678;2023-02-15T05:54:11;21.43;;;9.87;;
7821;SDS011;3956;50.558;9.678;2023-02-15T05:56:39;18.23;;;9.23;;
7821;SDS011;3956;50.558;9.678;2023-02-15T05:59:10;18.63;;;10.13;;
7821;SDS011;3956;50.558;9.678;2023-02-15T06:01:46;17.40;;;9.50;;
7821;SDS011;3956;50.558;9.678;2023-02-15T06:04:25;21.43;;;9.93;;
7821;SDS011;3956;50.558;9.678;2023-02-15T06:06:57;18.53;;;9.93;;
7821;SDS011;3956;50.558;9.678;2023-02-15T06:09:26;18.37;;;10.20;;
7821;SDS011;3956;50.558;9.678;2023-02-15T06:11:55;18.17;;;9.83;;
7821;SDS011;3956;50.558;9.678;2023-02-15T06:14:23;18.10;;;9.33;;
7821;SDS011;3956;50.558;9.678;2023-02-15T06:16:53;16.00;;;9.27;;
7821;SDS011;3956;50.558;9.678;2023-02-15T06:19:26;17.00;;;10.10;;
7821;SDS011;3956;50.558;9.678;2023-02-15T06:21:58;19.43;;;11.00;;
7821;SDS011;3956;50.558;9.678;2023-02-15T06:24:34;15.47;;;8.33;;
7821;SDS011;3956;50.558;9.678;2023-02-15T06:27:19;16.47;;;9.30;;
7821;SDS011;3956;50.558;9.678;2023-02-15T06:30:37;14.77;;;7.93;;
7821;SDS011;3956;50.558;9.678;2023-02-15T06:33:08;16.67;;;8.80;;
7821;SDS011;3956;50.558;9.678;2023-02-15T06:39:31;20.07;;;8.57;;
7821;SDS011;3956;50.558;9.678;2023-02-15T06:42:00;16.50;;;9.17;;
7821;SDS011;3956;50.558;9.678;2023-02-15T06:44:29;14.23;;;8.87;;
7821;SDS011;3956;50.558;9.678;2023-02-15T06:46:57;16.67;;;9.33;;
7821;SDS011;3956;50.558;9.678;2023-02-15T06:49:26;16.97;;;9.07;;
7821;SDS011;3956;50.558;9.678;2023-02-15T06:51:56;17.70;;;8.97;;
7821;SDS011;3956;50.558;9.678;2023-02-15T06:54:27;17.60;;;9.47;;
7821;SDS011;3956;50.558;9.678;2023-02-15T06:56:57;19.20;;;9.77;;
7821;SDS011;3956;50.558;9.678;2023-02-15T06:59:27;22.83;;;9.83;;
7821;SDS011;3956;50.558;9.678;2023-02-15T07:02:00;21.03;;;9.70;;
7821;SDS011;3956;50.558;9.678;2023-02-15T07:04:28;21.00;;;10.10;;
7821;SDS011;3956;50.558;9.678;2023-02-15T07:06:59;17.73;;;9.80;;
7821;SDS011;3956;50.558;9.678;2023-02-15T07:09:29;17.53;;;8.70;;
7821;SDS011;3956;50.558;9.678;2023-02-15T07:12:09;16.17;;;9.20;;
7821;SDS011;3956;50.558;9.678;2023-02-15T07:14:54;15.10;;;7.87;;
7821;SDS011;3956;50.558;9.678;2023-02-15T07:17:26;16.50;;;9.10;;
7821;SDS011;3956;50.558;9.678;2023-02-15T07:20:03;14.87;;;8.87;;
7821;SDS011;3956;50.558;9.678;2023-02-15T07:22:37;16.70;;;8.83;;
7821;SDS011;3956;50.558;9.678;2023-02-15T07:25:07;15.60;;;8.03;;
7821;SDS011;3956;50.558;9.678;2023-02-15T07:27:42;14.80;;;8.60;;
7821;SDS011;3956;50.558;9.678;2023-02-15T07:30:13;15.40;;;8.73;;
7821;SDS011;3956;50.558;9.678;2023-02-15T07:32:43;15.40;;;8.33;;
7821;SDS011;3956;50.558;9.678;2023-02-15T07:35:31;13.73;;;7.90;;
7821;SDS011;3956;50.558;9.678;2023-02-15T07:38:06;14.30;;;8.43;;
7821;SDS011;3956;50.558;9.678;2023-02-15T07:40:36;14.27;;;8.03;;
7821;SDS011;3956;50.558;9.678;2023-02-15T07:43:15;25.13;;;9.40;;
7821;SDS011;3956;50.558;9.678;2023-02-15T07:45:45;18.93;;;8.30;;
7821;SDS011;3956;50.558;9.678;2023-02-15T07:48:16;17.53;;;9.87;;
7821;SDS011;3956;50.558;9.678;2023-02-15T07:50:44;14.33;;;8.03;;
7821;SDS011;3956;50.558;9.678;2023-02-15T07:59:55;18.13;;;8.73;;
7821;SDS011;3956;50.558;9.678;2023-02-15T08:05:05;16.17;;;9.27;;
7821;SDS011;3956;50.558;9.678;2023-02-15T08:07:42;19.80;;;8.23;;
7821;SDS011;3956;50.558;9.678;2023-02-15T08:10:50;13.37;;;8.30;;
7821;SDS011;3956;50.558;9.678;2023-02-15T08:17:25;17.60;;;9.10;;
7821;SDS011;3956;50.558;9.678;2023-02-15T08:19:55;14.63;;;8.83;;
7821;SDS011;3956;50.558;9.678;2023-02-15T08:22:30;16.93;;;9.67;;
7821;SDS011;3956;50.558;9.678;2023-02-15T08:25:01;20.50;;;10.37;;
7821;SDS011;3956;50.558;9.678;2023-02-15T08:27:56;17.33;;;9.10;;
7821;SDS011;3956;50.558;9.678;2023-02-15T08:31:05;16.40;;;9.13;;
7821;SDS011;3956;50.558;9.678;2023-02-15T08:33:46;14.03;;;8.20;;
7821;SDS011;3956;50.558;9.678;2023-02-15T08:36:18;14.23;;;8.23;;
7821;SDS011;3956;50.558;9.678;2023-02-15T08:39:03;12.67;;;8.07;;
7821;SDS011;3956;50.558;9.678;2023-02-15T08:41:38;14.17;;;8.03;;
7821;SDS011;3956;50.558;9.678;2023-02-15T08:44:14;14.00;;;7.87;;
7821;SDS011;3956;50.558;9.678;2023-02-15T08:46:45;16.27;;;8.70;;
7821;SDS011;3956;50.558;9.678;2023-02-15T08:49:27;12.97;;;8.27;;
7821;SDS011;3956;50.558;9.678;2023-02-15T08:51:59;17.20;;;9.27;;
7821;SDS011;3956;50.558;9.678;2023-02-15T08:54:35;17.80;;;9.37;;
7821;SDS011;3956;50.558;9.678;2023-02-15T08:57:03;16.73;;;9.20;;
7821;SDS011;3956;50.558;9.678;2023-02-15T08:59:37;17.07;;;10.20;;
7821;SDS011;3956;50.558;9.678;2023-02-15T09:02:50;17.30;;;9.60;;
7821;SDS011;3956;50.558;9.678;2023-02-15T09:09:15;16.27;;;9.63;;
7821;SDS011;3956;50.558;9.678;2023-02-15T09:11:46;15.87;;;9.20;;
7821;SDS011;3956;50.558;9.678;2023-02-15T09:14:29;20.47;;;10.07;;
7821;SDS011;3956;50.558;9.678;2023-02-15T09:17:02;16.23;;;9.90;;
7821;SDS011;3956;50.558;9.678;2023-02-15T09:19:30;16.33;;;9.67;;
7821;SDS011;3956;50.558;9.678;2023-02-15T09:22:01;17.73;;;10.37;;
7821;SDS011;3956;50.558;9.678;2023-02-15T09:24:31;16.07;;;9.63;;
7821;SDS011;3956;50.558;9.678;2023-02-15T09:27:00;18.27;;;10.07;;
7821;SDS011;3956;50.558;9.678;2023-02-15T09:29:29;18.53;;;10.23;;
7821;SDS011;3956;50.558;9.678;2023-02-15T09:31:57;18.37;;;10.03;;
7821;SDS011;3956;50.558;9.678;2023-02-15T09:34:26;21.03;;;11.13;;
7821;SDS011;3956;50.558;9.678;2023-02-15T09:36:54;18.47;;;10.50;;
7821;SDS011;3956;50.558;9.678;2023-02-15T09:39:24;22.67;;;9.70;;
7821;SDS011;3956;50.558;9.678;2023-02-15T09:42:02;18.80;;;10.63;;
7821;SDS011;3956;50.558;9.678;2023-02-15T09:44:55;20.23;;;10.43;;
7821;SDS011;3956;50.558;9.678;2023-02-15T09:48:18;20.67;;;10.67;;
7821;SDS011;3956;50.558;9.678;2023-02-15T09:51:34;17.07;;;9.13;;
7821;SDS011;3956;50.558;9.678;2023-02-15T09:54:42;16.53;;;10.00;;
7821;SDS011;3956;50.558;9.678;2023-02-15T09:57:23;16.60;;;9.27;;
7821;SDS011;3956;50.558;9.678;2023-02-15T10:00:02;17.97;;;10.03;;
7821;SDS011;3956;50.558;9.678;2023-02-15T10:02:54;16.33;;;9.63;;
7821;SDS011;3956;50.558;9.678;2023-02-15T10:05:43;19.87;;;10.20;;
7821;SDS011;3956;50.558;9.678;2023-02-15T10:08:29;19.63;;;10.77;;
7821;SDS011;3956;50.558;9.678;2023-02-15T10:11:11;17.73;;;10.33;;
7821;SDS011;3956;50.558;9.678;2023-02-15T10:14:09;18.90;;;9.77;;
7821;SDS011;3956;50.558;9.678;2023-02-15T10:17:02;18.17;;;9.73;;
7821;SDS011;3956;50.558;9.678;2023-02-15T10:19:49;16.33;;;9.27;;
7821;SDS011;3956;50.558;9.678;2023-02-15T10:22:41;16.87;;;9.63;;
7821;SDS011;3956;50.558;9.678;2023-02-15T10:25:37;15.10;;;9.37;;
7821;SDS011;3956;50.558;9.678;2023-02-15T10:28:23;13.93;;;8.50;;
7821;SDS011;3956;50.558;9.678;2023-02-15T10:31:12;17.40;;;9.83;;
7821;SDS011;3956;50.558;9.678;2023-02-15T10:34:24;17.87;;;9.93;;
7821;SDS011;3956;50.558;9.678;2023-02-15T10:40:22;16.33;;;10.30;;
7821;SDS011;3956;50.558;9.678;2023-02-15T10:46:20;15.80;;;9.77;;
7821;SDS011;3956;50.558;9.678;2023-02-15T10:49:16;17.33;;;9.67;;
7821;SDS011;3956;50.558;9.678;2023-02-15T10:51:57;16.37;;;9.87;;
7821;SDS011;3956;50.558;9.678;2023-02-15T10:54:45;15.23;;;9.67;;
7821;SDS011;3956;50.558;9.678;2023-02-15T10:57:59;15.30;;;8.90;;
7821;SDS011;3956;50.558;9.678;2023-02-15T11:01:30;16.03;;;9.57;;
7821;SDS011;3956;50.558;9.678;2023-02-15T11:04:20;15.97;;;9.73;;
7821;SDS011;3956;50.558;9.678;2023-02-15T11:07:08;14.33;;;8.80;;
7821;SDS011;3956;50.558;9.678;2023-02-15T11:09:47;15.97;;;9.37;;
7821;SDS011;3956;50.558;9.678;2023-02-15T11:12:20;16.93;;;9.57;;
7821;SDS011;3956;50.558;9.678;2023-02-15T11:14:55;14.93;;;10.13;;
7821;SDS011;3956;50.558;9.678;2023-02-15T11:17:34;15.93;;;9.07;;
7821;SDS011;3956;50.558;9.678;2023-02-15T11:20:14;14.13;;;8.93;;
7821;SDS011;3956;50.558;9.678;2023-02-15T11:22:50;15.63;;;9.73;;
7821;SDS011;3956;50.558;9.678;2023-02-15T11:25:30;15.03;;;8.67;;
7821;SDS011;3956;50.558;9.678;2023-02-15T11:28:38;15.27;;;8.53;;
7821;SDS011;3956;50.558;9.678;2023-02-15T11:31:12;13.63;;;8.50;;
7821;SDS011;3956;50.558;9.678;2023-02-15T11:33:44;16.47;;;8.80;;
7821;SDS011;3956;50.558;9.678;2023-02-15T11:36:17;14.23;;;8.43;;
7821;SDS011;3956;50.558;9.678;2023-02-15T11:38:50;14.87;;;9.47;;
7821;SDS011;3956;50.558;9.678;2023-02-15T11:41:27;14.13;;;8.97;;
7821;SDS011;3956;50.558;9.678;2023-02-15T11:44:06;15.73;;;10.20;;
7821;SDS011;3956;50.558;9.678;2023-02-15T11:46:48;14.07;;;8.90;;
7821;SDS011;3956;50.558;9.678;2023-02-15T11:49:21;15.73;;;9.53;;
7821;SDS011;3956;50.558;9.678;2023-02-15T11:51:58;15.93;;;9.40;;
7821;SDS011;3956;50.558;9.678;2023-02-15T11:54:49;14.93;;;9.43;;
7821;SDS011;3956;50.558;9.678;2023-02-15T11:57:54;15.30;;;9.53;;
7821;SDS011;3956;50.558;9.678;2023-02-15T12:01:20;18.13;;;10.77;;
7821;SDS011;3956;50.558;9.678;2023-02-15T12:03:58;15.30;;;9.47;;
7821;SDS011;3956;50.558;9.678;2023-02-15T12:06:48;23.43;;;10.60;;
7821;SDS011;3956;50.558;9.678;2023-02-15T12:09:49;17.10;;;9.67;;
7821;SDS011;3956;50.558;9.678;2023-02-15T12:12:23;22.83;;;12.87;;
7821;SDS011;3956;50.558;9.678;2023-02-15T12:14:55;16.57;;;9.87;;
7821;SDS011;3956;50.558;9.678;2023-02-15T12:17:28;17.60;;;10.27;;
7821;SDS011;3956;50.558;9.678;2023-02-15T12:20:06;13.53;;;8.87;;
7821;SDS011;3956;50.558;9.678;2023-02-15T12:22:55;17.40;;;9.03;;
7821;SDS011;3956;50.558;9.678;2023-02-15T12:26:13;15.83;;;10.40;;
7821;SDS011;3956;50.558;9.678;2023-02-15T12:29:31;36.40;;;21.97;;
7821;SDS011;3956;50.558;9.678;2023-02-15T12:32:34;32.13;;;24.23;;
7821;SDS011;3956;50.558;9.678;2023-02-15T12:35:38;17.97;;;10.87;;
7821;SDS011;3956;50.558;9.678;2023-02-15T12:38:48;17.23;;;10.00;;
7821;SDS011;3956;50.558;9.678;2023-02-15T12:42:04;18.23;;;11.07;;
7821;SDS011;3956;50.558;9.678;2023-02-15T12:45:24;14.97;;;9.53;;
7821;SDS011;3956;50.558;9.678;2023-02-15T12:48:14;16.27;;;9.93;;
7821;SDS011;3956;50.558;9.678;2023-02-15T12:50:45;15.00;;;9.67;;
7821;SDS011;3956;50.558;9.678;2023-02-15T12:53:21;16.23;;;10.17;;
7821;SDS011;3956;50.558;9.678;2023-02-15T12:56:00;15.90;;;9.90;;
7821;SDS011;3956;50.558;9.678;2023-02-15T12:58:31;17.50;;;10.40;;
7821;SDS011;3956;50.558;9.678;2023-02-15T13:01:43;14.80;;;9.43;;
7821;SDS011;3956;50.558;9.678;2023-02-15T13:04:21;18.67;;;9.40;;
7821;SDS011;3956;50.558;9.678;2023-02-15T13:07:03;15.57;;;9.70;;
7821;SDS011;3956;50.558;9.678;2023-02-15T13:10:17;14.70;;;9.63;;
7821;SDS011;3956;50.558;9.678;2023-02-15T13:12:57;15.93;;;10.50;;
7821;SDS011;3956;50.558;9.678;2023-02-15T13:15:37;16.23;;;9.90;;
7821;SDS011;3956;50.558;9.678;2023-02-15T13:18:13;16.23;;;10.37;;
7821;SDS011;3956;50.558;9.678;2023-02-15T13:20:44;15.40;;;9.90;;
7821;SDS011;3956;50.558;9.678;2023-02-15T13:23:27;17.83;;;10.40;;
7821;SDS011;3956;50.558;9.678;2023-02-15T13:25:57;15.80;;;10.13;;
7821;SDS011;3956;50.558;9.678;2023-02-15T13:28:31;14.57;;;9.37;;
7821;SDS011;3956;50.558;9.678;2023-02-15T13:31:11;14.33;;;9.27;;
7821;SDS011;3956;50.558;9.678;2023-02-15T13:33:42;16.77;;;10.93;;
7821;SDS011;3956;50.558;9.678;2023-02-15T13:36:18;14.13;;;9.33;;
7821;SDS011;3956;50.558;9.678;2023-02-15T13:38:56;17.90;;;10.47;;
7821;SDS011;3956;50.558;9.678;2023-02-15T13:41:50;16.73;;;9.53;;
7821;SDS011;3956;50.558;9.678;2023-02-15T13:44:34;15.67;;;9.73;;
7821;SDS011;3956;50.558;9.678;2023-02-15T13:47:21;20.23;;;10.30;;
7821;SDS011;3956;50.558;9.678;2023-02-15T13:50:01;13.80;;;10.17;;
7821;SDS011;3956;50.558;9.678;2023-02-15T13:56:42;15.43;;;9.27;;
7821;SDS011;3956;50.558;9.678;2023-02-15T13:59:38;14.40;;;9.97;;
7821;SDS011;3956;50.558;9.678;2023-02-15T14:05:36;14.83;;;9.20;;
7821;SDS011;3956;50.558;9.678;2023-02-15T14:09:05;16.47;;;9.93;;
7821;SDS011;3956;50.558;9.678;2023-02-15T14:11:56;14.60;;;9.10;;
7821;SDS011;3956;50.558;9.678;2023-02-15T14:15:26;15.50;;;9.73;;
7821;SDS011;3956;50.558;9.678;2023-02-15T14:18:07;17.93;;;10.03;;
7821;SDS011;3956;50.558;9.678;2023-02-15T14:20:51;19.13;;;11.43;;
7821;SDS011;3956;50.558;9.678;2023-02-15T14:23:42;13.20;;;9.27;;
7821;SDS011;3956;50.558;9.678;2023-02-15T14:26:25;16.57;;;9.37;;
7821;SDS011;3956;50.558;9.678;2023-02-15T14:29:16;16.77;;;10.03;;
7821;SDS011;3956;50.558;9.678;2023-02-15T14:31:55;14.70;;;9.50;;
7821;SDS011;3956;50.558;9.678;2023-02-15T14:34:36;16.80;;;10.30;;
7821;SDS011;3956;50.558;9.678;2023-02-15T14:37:12;15.97;;;9.27;;
7821;SDS011;3956;50.558;9.678;2023-02-15T14:40:06;15.47;;;10.27;;
7821;SDS011;3956;50.558;9.678;2023-02-15T14:43:34;14.83;;;9.23;;
7821;SDS011;3956;50.558;9.678;2023-02-15T14:46:16;14.87;;;9.83;;
7821;SDS011;3956;50.558;9.678;2023-02-15T14:48:53;17.03;;;10.67;;
7821;SDS011;3956;50.558;9.678;2023-02-15T14:54:10;17.40;;;9.63;;
7821;SDS011;3956;50.558;9.678;2023-02-15T14:57:26;15.53;;;10.07;;
7821;SDS011;3956;50.558;9.678;2023-02-15T15:00:46;15.43;;;10.20;;
7821;SDS011;3956;50.558;9.678;2023-02-15T15:03:42;15.33;;;9.90;;
7821;SDS011;3956;50.558;9.678;2023-02-15T15:06:57;17.57;;;10.80;;
7821;SDS011;3956;50.558;9.678;2023-02-15T15:09:58;15.33;;;9.37;;
7821;SDS011;3956;50.558;9.678;2023-02-15T15:12:37;15.93;;;10.37;;
7821;SDS011;3956;50.558;9.678;2023-02-15T15:15:10;18.03;;;10.30;;
7821;SDS011;3956;50.558;9.678;2023-02-15T15:17:57;15.03;;;10.20;;
7821;SDS011;3956;50.558;9.678;2023-02-15T15:20:41;14.37;;;9.23;;
7821;SDS011;3956;50.558;9.678;2023-02-15T15:26:24;15.07;;;9.77;;
7821;SDS011;3956;50.558;9.678;2023-02-15T15:29:05;15.63;;;10.03;;
7821;SDS011;3956;50.558;9.678;2023-02-15T15:31:44;15.30;;;9.43;;
7821;SDS011;3956;50.558;9.678;2023-02-15T15:40:58;15.73;;;10.97;;
7821;SDS011;3956;50.558;9.678;2023-02-15T15:43:53;15.80;;;10.43;;
7821;SDS011;3956;50.558;9.678;2023-02-15T15:50:33;17.00;;;10.57;;
7821;SDS011;3956;50.558;9.678;2023-02-15T15:53:02;16.83;;;10.93;;
7821;SDS011;3956;50.558;9.678;2023-02-15T15:55:33;15.67;;;10.10;;
7821;SDS011;3956;50.558;9.678;2023-02-15T15:58:03;18.50;;;11.50;;
7821;SDS011;3956;50.558;9.678;2023-02-15T16:00:35;17.33;;;10.60;;
7821;SDS011;3956;50.558;9.678;2023-02-15T16:03:48;17.53;;;11.27;;
7821;SDS011;3956;50.558;9.678;2023-02-15T16:06:29;15.77;;;10.17;;
7821;SDS011;3956;50.558;9.678;2023-02-15T16:09:12;17.87;;;10.93;;
7821;SDS011;3956;50.558;9.678;2023-02-15T16:11:44;15.90;;;10.47;;
7821;SDS011;3956;50.558;9.678;2023-02-15T16:17:03;16.77;;;10.63;;
7821;SDS011;3956;50.558;9.678;2023-02-15T16:19:34;17.17;;;11.10;;
7821;SDS011;3956;50.558;9.678;2023-02-15T16:22:07;17.47;;;11.47;;
7821;SDS011;3956;50.558;9.678;2023-02-15T16:28:07;17.10;;;11.10;;
7821;SDS011;3956;50.558;9.678;2023-02-15T16:31:07;16.20;;;10.73;;
7821;SDS011;3956;50.558;9.678;2023-02-15T16:33:58;21.10;;;11.10;;
7821;SDS011;3956;50.558;9.678;2023-02-15T16:36:33;18.40;;;11.53;;
7821;SDS011;3956;50.558;9.678;2023-02-15T16:39:36;19.23;;;12.07;;
7821;SDS011;3956;50.558;9.678;2023-02-15T16:42:17;20.00;;;12.47;;
7821;SDS011;3956;50.558;9.678;2023-02-15T16:44:46;21.17;;;12.80;;
7821;SDS011;3956;50.558;9.678;2023-02-15T16:47:19;19.73;;;11.63;;
7821;SDS011;3956;50.558;9.678;2023-02-15T16:49:55;22.03;;;12.63;;
7821;SDS011;3956;50.558;9.678;2023-02-15T16:52:43;21.50;;;13.53;;
7821;SDS011;3956;50.558;9.678;2023-02-15T16:55:19;23.13;;;13.30;;
7821;SDS011;3956;50.558;9.678;2023-02-15T16:57:50;20.97;;;12.60;;
7821;SDS011;3956;50.558;9.678;2023-02-15T17:00:30;18.37;;;12.30;;
7821;SDS011;3956;50.558;9.678;2023-02-15T17:07:29;21.27;;;12.30;;
7821;SDS011;3956;50.558;9.678;2023-02-15T17:10:25;19.57;;;12.73;;
7821;SDS011;3956;50.558;9.678;2023-02-15T17:13:25;22.60;;;12.87;;
7821;SDS011;3956;50.558;9.678;2023-02-15T17:16:08;21.57;;;;;
7821;SDS011;3956;50.558;9.678;2023-02-15T17:18:57;22.67;;;12.97;;
7821;SDS011;3956;50.558;9.678;2023-02-15T17:21:39;22.53;;;12.73;;
7821;SDS011;3956;50.558;9.678;2023-02-15T17:24:58;21.63;;;12.30;;
7821;SDS011;3956;50.558;9.678;2023-02-15T17:28:04;22.90;;;13.00;;